createdAt,value
2017-05-03T17:40:02.231Z,67.07
2017-05-03T17:41:02.950Z,67.36
2017-05-03T17:42:03.763Z,67.36
2017-05-03T17:43:04.743Z,67.27
2017-05-03T17:44:05.319Z,67.27
2017-05-03T17:45:06.002Z,67.65
2017-05-03T17:46:06.652Z,68.22
2017-05-03T17:47:07.620Z,68.95
2017-05-03T17:48:08.285Z,69.43
2017-05-03T17:49:08.998Z,69.04
2017-05-03T17:50:09.668Z,69.52
2017-05-03T17:51:10.366Z,69.62
2017-05-03T17:52:11.054Z,69.33
2017-05-03T17:53:11.989Z,69.62
2017-05-03T17:54:12.768Z,70.19
2017-05-03T17:55:13.440Z,69.9
2017-05-03T17:56:14.108Z,70.28
2017-05-03T17:57:14.855Z,70.38
2017-05-03T17:58:15.537Z,70.28
2017-05-03T17:59:16.533Z,71.14
2017-05-03T18:00:18.244Z,71.81
2017-05-03T18:01:18.947Z,71.81
2017-05-03T18:02:19.836Z,71.72
2017-05-03T18:03:20.374Z,71.72
2017-05-03T18:04:22.116Z,72.09
2017-05-03T18:05:22.799Z,71.96
2017-05-03T18:06:23.459Z,72.06
2017-05-03T18:07:24.193Z,72.06
2017-05-03T18:08:25.290Z,72.16
2017-05-03T18:09:26.559Z,72.72
2017-05-03T18:10:27.898Z,72.72
2017-05-03T18:11:28.915Z,72.72
2017-05-03T18:12:29.654Z,73.21
2017-05-03T18:13:30.374Z,73.11
2017-05-03T18:14:31.138Z,73.39
2017-05-03T18:15:32.084Z,73.58
2017-05-03T18:16:34.226Z,73.39
2017-05-03T18:17:34.942Z,73.21
2017-05-03T18:18:35.669Z,73.68
2017-05-03T18:19:36.362Z,74.06
2017-05-03T18:20:37.136Z,74.35
2017-05-03T18:21:37.869Z,74.35
2017-05-03T18:22:38.608Z,74.73
2017-05-03T18:23:39.340Z,74.69
2017-05-03T18:24:41.670Z,74.6
2017-05-03T18:25:41.069Z,75.26
2017-05-03T18:26:41.792Z,75.36
2017-05-03T18:27:42.505Z,75.55
2017-05-03T18:28:43.417Z,75.36
2017-05-03T18:29:44.310Z,75.26
2017-05-03T18:30:45.151Z,75.36
2017-05-03T18:31:45.882Z,75.16
2017-05-03T18:32:46.588Z,75.74
2017-05-03T18:33:47.299Z,75.93
2017-05-03T18:34:48.091Z,75.93
2017-05-03T18:35:48.781Z,76.12
2017-05-03T18:36:49.609Z,76.5
2017-05-03T18:37:50.526Z,76.69
2017-05-03T18:38:51.294Z,77.17
2017-05-03T18:39:52.000Z,76.59
2017-05-03T18:40:52.818Z,76.94
2017-05-03T18:41:53.615Z,77.17
2017-05-03T18:42:54.422Z,77.17
2017-05-03T18:43:55.251Z,76.98
2017-05-03T18:44:55.993Z,77.17
2017-05-03T18:45:56.833Z,77.17
2017-05-03T18:46:57.776Z,77.17
2017-05-03T18:47:58.621Z,76.88
2017-05-03T18:48:59.296Z,76.69
2017-05-03T18:50:00.000Z,76.59
2017-05-03T18:51:00.674Z,76.69
2017-05-03T18:52:01.343Z,76.59
2017-05-03T18:53:02.018Z,76.21
2017-05-03T18:54:02.703Z,76.31
2017-05-03T18:55:03.360Z,76.18
2017-05-03T18:56:04.028Z,76.31
2017-05-03T18:57:04.748Z,76.21
2017-05-03T18:58:05.434Z,75.84
2017-05-03T18:59:06.101Z,76.03
2017-05-03T19:00:06.774Z,75.74
2017-05-03T19:01:07.439Z,76.21
2017-05-03T19:02:08.129Z,76.31
2017-05-03T19:03:08.799Z,76.5
2017-05-03T19:04:09.475Z,76.69
2017-05-03T19:05:10.148Z,76.56
2017-05-03T19:06:10.853Z,76.84
2017-05-03T19:07:11.512Z,76.75
2017-05-03T19:08:12.244Z,76.65
2017-05-03T19:09:13.017Z,76.59
2017-05-03T19:10:13.688Z,76.75
2017-05-03T19:11:14.391Z,76.79
2017-05-03T19:12:15.078Z,76.94
2017-05-03T19:13:15.746Z,76.84
2017-05-03T19:14:16.427Z,77.03
2017-05-03T19:15:17.124Z,77.13
2017-05-03T19:16:17.802Z,76.75
2017-05-03T19:17:18.476Z,76.84
2017-05-03T19:18:19.159Z,76.37
2017-05-03T19:19:19.822Z,76.46
2017-05-03T19:20:20.498Z,76.46
2017-05-03T19:21:21.167Z,76.65
2017-05-03T19:22:21.871Z,76.84
2017-05-03T19:23:22.582Z,76.84
2017-05-03T19:24:23.292Z,77.03
2017-05-03T19:25:23.972Z,76.75
2017-05-03T19:26:24.645Z,77.22
2017-05-03T19:27:25.357Z,76.94
2017-05-03T19:28:26.028Z,77.13
2017-05-03T19:29:26.711Z,76.94
2017-05-03T19:30:27.384Z,77.22
2017-05-03T19:31:28.056Z,77.61
2017-05-03T19:32:28.714Z,77.61
2017-05-03T19:33:29.422Z,77.42
2017-05-03T19:34:30.114Z,77.13
2017-05-03T19:35:30.776Z,77.42
2017-05-03T19:36:32.935Z,77.51
2017-05-03T19:37:33.972Z,77.61
2017-05-03T19:38:34.999Z,77.8
2017-05-03T19:39:35.682Z,78.08
2017-05-03T19:40:36.411Z,77.89
2017-05-03T19:41:37.101Z,77.89
2017-05-03T19:42:37.790Z,77.98
2017-05-03T19:43:38.485Z,77.7
2017-05-03T19:44:39.369Z,77.89
2017-05-03T19:45:40.617Z,78.08
2017-05-03T19:46:41.584Z,78.08
2017-05-03T19:47:42.320Z,78.08
2017-05-03T19:48:43.055Z,77.89
2017-05-03T19:49:43.862Z,78.17
2017-05-03T19:50:44.678Z,78.08
2017-05-03T19:51:45.559Z,77.85
2017-05-03T19:52:46.439Z,78.71
2017-05-03T19:53:47.318Z,78.61
2017-05-03T19:54:48.127Z,78.71
2017-05-03T19:55:48.930Z,78.71
2017-05-03T19:56:49.797Z,79.28
2017-05-03T19:57:50.729Z,79.38
2017-05-03T19:58:51.576Z,78.99
2017-05-03T19:59:52.313Z,78.9
2017-05-03T20:00:53.196Z,78.52
2017-05-03T20:01:54.090Z,78.8
2017-05-03T20:02:54.779Z,78.99
2017-05-03T20:03:55.561Z,78.8
2017-05-03T20:04:56.590Z,78.9
2017-05-03T20:05:57.348Z,78.9
2017-05-03T20:06:58.122Z,78.9
2017-05-03T20:07:58.956Z,79.66
2017-05-03T20:09:04.322Z,79.75
2017-05-03T20:10:34.806Z,79.47
2017-05-03T20:11:35.500Z,79.38
2017-05-03T20:12:36.212Z,79.94
2017-05-03T20:13:37.200Z,79.85
2017-05-03T20:14:37.926Z,79.38
2017-05-03T20:15:38.644Z,79.09
2017-05-03T20:16:39.324Z,79.38
2017-05-03T20:17:41.156Z,79.75
2017-05-03T20:18:43.426Z,79.75
2017-05-03T20:19:44.139Z,80.04
2017-05-03T20:20:44.919Z,80.52
2017-05-03T20:21:46.020Z,80.13
2017-05-03T20:22:46.745Z,80.04
2017-05-03T20:23:47.421Z,79.94
2017-05-03T20:24:48.187Z,79.94
2017-05-03T20:25:49.214Z,80.61
2017-05-03T20:26:49.913Z,81.09
2017-05-03T20:27:50.673Z,80.8
2017-05-03T20:28:51.526Z,80.8
2017-05-03T20:29:53.245Z,80.71
2017-05-03T20:30:57.276Z,80.61
2017-05-03T20:31:59.430Z,80.86
2017-05-03T20:33:00.373Z,80.9
2017-05-03T20:34:01.056Z,80.71
2017-05-03T20:35:02.020Z,81.05
2017-05-03T20:36:03.932Z,80.86
2017-05-03T20:37:04.669Z,80.9
2017-05-03T20:38:05.350Z,81.37
2017-05-03T20:39:06.052Z,81.05
2017-05-03T20:40:06.833Z,80.86
2017-05-03T20:41:07.508Z,81.37
2017-05-03T20:42:08.202Z,80.76
2017-05-03T20:43:09.156Z,81.37
2017-05-03T20:44:09.982Z,80.76
2017-05-03T20:45:10.700Z,80.95
2017-05-03T20:46:11.373Z,81.33
2017-05-03T20:47:12.053Z,81.33
2017-05-03T20:48:12.736Z,80.76
2017-05-03T20:49:13.415Z,81.33
2017-05-03T20:50:14.143Z,81.43
2017-05-03T20:51:14.815Z,81.43
2017-05-03T20:52:15.469Z,81.14
2017-05-03T20:53:16.149Z,81.52
2017-05-03T20:54:16.839Z,81.24
2017-05-03T20:55:17.508Z,81.33
2017-05-03T20:56:18.195Z,81.43
2017-05-03T20:57:18.878Z,80.95
2017-05-03T20:58:19.629Z,80.66
2017-05-03T20:59:20.221Z,81.24
2017-05-03T21:00:20.928Z,80.86
2017-05-03T21:01:21.603Z,80.76
2017-05-03T21:02:22.303Z,80.86
2017-05-03T21:03:22.994Z,81.05
2017-05-03T21:04:23.679Z,81.33
2017-05-03T21:05:24.393Z,81.33
2017-05-03T21:06:25.084Z,81.24
2017-05-03T21:07:25.808Z,80.76
2017-05-03T21:08:26.481Z,81.14
2017-05-03T21:09:27.146Z,81.24
2017-05-03T21:10:27.815Z,81.24
2017-05-03T21:11:28.496Z,81.05
2017-05-03T21:12:29.171Z,81.14
2017-05-03T21:13:29.842Z,81.43
2017-05-03T21:14:30.562Z,81.14
2017-05-03T21:15:31.287Z,81.14
2017-05-03T21:16:31.956Z,80.76
2017-05-03T21:17:32.624Z,81.24
2017-05-03T21:18:33.333Z,81.81
2017-05-03T21:19:34.077Z,81.52
2017-05-03T21:20:34.741Z,81.62
2017-05-03T21:21:35.426Z,81.33
2017-05-03T21:22:36.130Z,81.33
2017-05-03T21:23:36.848Z,81.24
2017-05-03T21:24:37.572Z,81.05
2017-05-03T21:25:38.491Z,81.43
2017-05-03T21:26:39.159Z,80.86
2017-05-03T21:27:39.844Z,81.24
2017-05-03T21:28:40.721Z,81.14
2017-05-03T21:29:42.630Z,80.38
2017-05-03T21:30:43.314Z,80.66
2017-05-03T21:31:43.974Z,80.66
2017-05-03T21:32:45.320Z,80.29
2017-05-03T21:33:46.055Z,80.66
2017-05-03T21:34:46.806Z,80.76
2017-05-03T21:35:47.589Z,80.86
2017-05-03T21:36:49.117Z,80.86
2017-05-03T21:37:50.324Z,80.38
2017-05-03T21:38:50.988Z,79.91
2017-05-03T21:39:51.679Z,80.1
2017-05-03T21:40:52.336Z,80
2017-05-03T21:41:53.196Z,80.19
2017-05-03T21:42:53.952Z,79.91
2017-05-03T21:43:54.694Z,79.72
2017-05-03T21:44:57.294Z,80
2017-05-03T21:45:59.147Z,79.81
2017-05-03T21:46:59.830Z,79.72
2017-05-03T21:48:01.077Z,79.72
2017-05-03T21:49:01.762Z,79.72
2017-05-03T21:50:02.462Z,78.67
2017-05-03T21:51:03.152Z,78.38
2017-05-03T21:52:03.826Z,78.38
2017-05-03T21:53:04.503Z,79.24
2017-05-03T21:54:05.186Z,78.38
2017-05-03T21:55:05.841Z,78.77
2017-05-03T21:56:06.514Z,77.91
2017-05-03T21:57:07.190Z,77.91
2017-05-03T21:58:07.869Z,78.1
2017-05-03T21:59:08.540Z,77.43
2017-05-03T22:00:09.222Z,77.53
2017-05-03T22:01:09.881Z,77.72
2017-05-03T22:02:10.559Z,77.91
2017-05-03T22:03:11.236Z,78.1
2017-05-03T22:04:11.900Z,77.24
2017-05-03T22:05:12.565Z,76.39
2017-05-03T22:06:13.236Z,76.48
2017-05-03T22:07:13.897Z,76.76
2017-05-03T22:08:14.576Z,76.76
2017-05-03T22:09:15.245Z,76.57
2017-05-03T22:10:15.921Z,76.39
2017-05-03T22:11:16.595Z,76.29
2017-05-03T22:12:17.282Z,76.48
2017-05-03T22:13:17.993Z,75.53
2017-05-03T22:14:18.673Z,75.91
2017-05-03T22:15:19.402Z,75.72
2017-05-03T22:16:20.061Z,75.81
2017-05-03T22:17:20.743Z,75.72
2017-05-03T22:18:21.403Z,75.05
2017-05-03T22:19:22.074Z,74.77
2017-05-03T22:20:22.756Z,74.1
